createdAt,value
2019-04-20T00:00:37.165Z,41.87
2019-04-20T00:03:03.839Z,35.60
2019-04-20T00:05:30.866Z,37.00
2019-04-20T00:08:00.674Z,36.50
2019-04-20T00:10:27.257Z,32.67
2019-04-20T00:13:06.824Z,36.97
2019-04-20T00:15:21.724Z,37.17
2019-04-20T00:17:54.233Z,33.17
2019-04-20T00:20:20.776Z,43.53
2019-04-20T00:22:50.134Z,39.53
2019-04-20T00:25:19.134Z,35.70
2019-04-20T00:28:04.441Z,45.80
2019-04-20T00:30:34.016Z,41.50
2019-04-20T00:32:55.589Z,40.43
2019-04-20T00:35:10.486Z,43.73
2019-04-20T00:37:37.984Z,35.03
2019-04-20T00:40:05.680Z,40.93
2019-04-20T00:42:39.078Z,38.00
2019-04-20T00:45:05.851Z,37.23
2019-04-20T00:47:37.344Z,40.13
2019-04-20T00:50:05.731Z,33.93
2019-04-20T00:52:32.900Z,43.00
2019-04-20T00:54:52.062Z,46.30
2019-04-20T00:57:25.895Z,43.77
2019-04-20T01:00:09.358Z,54.17
2019-04-20T01:02:29.911Z,48.17
2019-04-20T01:05:04.131Z,51.20
2019-04-20T01:07:24.142Z,55.70
2019-04-20T01:09:43.375Z,48.00
2019-04-20T01:12:17.280Z,58.10
2019-04-20T01:14:43.373Z,60.13
2019-04-20T01:17:11.663Z,54.37
2019-04-20T01:19:33.722Z,54.97
2019-04-20T01:22:05.247Z,56.23
2019-04-20T01:24:34.787Z,53.27
2019-04-20T01:27:00.423Z,55.03
2019-04-20T01:29:32.422Z,51.30
2019-04-20T01:32:05.666Z,55.30
2019-04-20T01:34:37.856Z,50.70
2019-04-20T01:37:04.408Z,55.97
2019-04-20T01:39:23.695Z,57.63
2019-04-20T01:41:43.886Z,54.23
2019-04-20T01:44:11.136Z,49.13
2019-04-20T01:46:39.110Z,50.30
2019-04-20T01:49:11.614Z,48.67
2019-04-20T01:51:45.958Z,48.23
2019-04-20T01:54:17.694Z,48.80
2019-04-20T01:56:43.691Z,46.30
2019-04-20T01:59:20.187Z,44.73
2019-04-20T02:01:36.192Z,41.57
2019-04-20T02:04:06.406Z,38.80
2019-04-20T02:06:41.882Z,36.77
2019-04-20T02:09:06.793Z,38.63
2019-04-20T02:11:32.774Z,33.13
2019-04-20T02:14:00.261Z,33.40
2019-04-20T02:16:31.753Z,36.37
2019-04-20T02:19:09.041Z,30.60
2019-04-20T02:21:34.044Z,30.60
2019-04-20T02:23:53.335Z,29.83
2019-04-20T02:26:16.003Z,32.47
2019-04-20T02:29:05.700Z,36.07
2019-04-20T02:34:19.852Z,31.97
2019-04-20T02:36:51.615Z,31.03
2019-04-20T02:44:14.358Z,28.70
2019-04-20T02:46:41.395Z,31.17
2019-04-20T02:49:10.149Z,33.77
2019-04-20T02:51:35.402Z,33.27
2019-04-20T02:54:13.084Z,32.80
2019-04-20T02:56:32.730Z,30.17
2019-04-20T02:59:02.173Z,28.63
2019-04-20T03:01:16.207Z,27.57
2019-04-20T03:03:32.849Z,24.90
2019-04-20T03:06:08.590Z,27.67
2019-04-20T03:08:38.049Z,30.63
2019-04-20T03:11:17.967Z,31.87
2019-04-20T03:13:39.684Z,31.07
2019-04-20T03:16:06.752Z,29.33
2019-04-20T03:18:37.500Z,29.37
2019-04-20T03:21:09.654Z,29.00
2019-04-20T03:23:37.265Z,31.73
2019-04-20T03:25:59.464Z,30.73
2019-04-20T03:28:32.903Z,29.53
2019-04-20T03:34:03.394Z,29.40
2019-04-20T03:36:07.487Z,23.47
2019-04-20T03:38:19.903Z,30.90
2019-04-20T03:40:46.480Z,28.07
2019-04-20T03:43:01.117Z,30.40
2019-04-20T03:45:35.398Z,30.13
2019-04-20T03:48:07.806Z,26.30
2019-04-20T03:50:46.591Z,29.40
2019-04-20T03:53:12.870Z,26.07
2019-04-20T03:55:39.725Z,26.90
2019-04-20T03:58:14.269Z,30.90
2019-04-20T04:00:43.255Z,28.80
2019-04-20T04:03:20.004Z,29.07
2019-04-20T04:05:36.879Z,29.23
2019-04-20T04:08:03.096Z,30.43
2019-04-20T04:10:30.362Z,30.40
2019-04-20T04:12:51.748Z,26.13
2019-04-20T04:15:19.064Z,28.17
2019-04-20T04:17:47.951Z,29.10
2019-04-20T04:20:17.429Z,28.63
2019-04-20T04:23:02.527Z,32.40
2019-04-20T04:25:20.773Z,33.40
2019-04-20T04:28:01.354Z,29.40
2019-04-20T04:30:30.560Z,34.90
2019-04-20T04:33:32.177Z,33.83
2019-04-20T04:35:27.196Z,31.90
2019-04-20T04:38:02.703Z,34.83
2019-04-20T04:40:42.738Z,34.37
2019-04-20T04:43:00.740Z,38.73
2019-04-20T04:45:11.229Z,38.53
2019-04-20T04:47:35.190Z,36.23
2019-04-20T04:50:09.580Z,37.07
2019-04-20T04:52:38.297Z,42.10
2019-04-20T04:55:11.065Z,42.90
2019-04-20T04:57:26.355Z,35.03
2019-04-20T04:59:53.116Z,36.70
2019-04-20T05:02:22.744Z,37.77
2019-04-20T05:05:10.408Z,31.90
2019-04-20T05:07:35.334Z,33.00
2019-04-20T05:09:50.684Z,37.27
2019-04-20T05:12:21.493Z,36.20
2019-04-20T05:14:56.900Z,34.13
2019-04-20T05:17:33.975Z,36.90
2019-04-20T05:19:57.441Z,37.43
2019-04-20T05:22:32.298Z,38.70
2019-04-20T05:25:02.118Z,35.23
2019-04-20T05:27:30.241Z,34.43
2019-04-20T05:29:39.561Z,36.70
2019-04-20T05:32:14.194Z,34.27
2019-04-20T05:35:02.367Z,36.67
2019-04-20T05:37:27.455Z,35.70
2019-04-20T05:39:51.927Z,45.20
2019-04-20T05:42:27.846Z,37.20
2019-04-20T05:44:50.267Z,37.50
2019-04-20T05:47:18.409Z,34.07
2019-04-20T05:49:45.423Z,38.13
2019-04-20T05:52:24.138Z,37.20
2019-04-20T05:54:47.613Z,36.17
2019-04-20T05:57:14.758Z,36.37
2019-04-20T05:59:48.387Z,42.10
2019-04-20T06:02:11.332Z,41.00
2019-04-20T06:04:48.605Z,35.90
2019-04-20T06:07:09.307Z,38.17
2019-04-20T06:09:33.952Z,35.23
2019-04-20T06:14:17.243Z,32.90
2019-04-20T06:17:04.176Z,37.77
2019-04-20T06:19:31.906Z,37.43
2019-04-20T06:22:04.016Z,33.30
2019-04-20T06:24:39.990Z,33.20
2019-04-20T06:26:59.260Z,39.77
2019-04-20T06:29:22.551Z,35.73
2019-04-20T06:31:59.112Z,34.27
2019-04-20T06:34:42.559Z,32.40
2019-04-20T06:42:08.435Z,30.90
2019-04-20T06:44:35.404Z,33.20
2019-04-20T06:46:58.892Z,33.70
2019-04-20T06:49:27.470Z,32.43
2019-04-20T06:51:55.415Z,32.47
2019-04-20T06:54:10.355Z,31.53
2019-04-20T06:56:49.956Z,33.03
2019-04-20T06:59:27.734Z,42.03
2019-04-20T07:01:58.309Z,34.33
2019-04-20T07:04:34.853Z,35.00
2019-04-20T07:06:51.877Z,31.73
2019-04-20T07:09:18.413Z,34.33
2019-04-20T07:11:42.597Z,30.63
2019-04-20T07:13:54.437Z,37.47
2019-04-20T07:16:36.302Z,37.37
2019-04-20T07:19:09.687Z,37.73
2019-04-20T07:21:52.370Z,34.50
2019-04-20T07:24:11.851Z,42.10
2019-04-20T07:26:37.282Z,35.87
2019-04-20T07:29:06.831Z,38.63
2019-04-20T07:31:32.044Z,36.33
2019-04-20T07:33:56.921Z,32.87
2019-04-20T07:36:32.289Z,36.47
2019-04-20T07:38:55.266Z,36.03
2019-04-20T07:41:33.132Z,39.93
2019-04-20T07:44:01.713Z,35.10
2019-04-20T07:46:35.188Z,35.00
2019-04-20T07:48:42.600Z,35.13
2019-04-20T07:51:04.858Z,37.10
2019-04-20T07:53:38.608Z,33.40
2019-04-20T07:56:14.714Z,37.97
2019-04-20T07:58:31.702Z,35.70
2019-04-20T08:01:18.182Z,38.33
2019-04-20T08:03:39.318Z,36.93
2019-04-20T08:05:58.223Z,34.50
2019-04-20T08:08:33.732Z,37.37
2019-04-20T08:10:58.611Z,37.50
2019-04-20T08:13:42.121Z,30.87
2019-04-20T08:16:00.774Z,34.53
2019-04-20T08:18:32.212Z,33.37
2019-04-20T08:21:00.914Z,32.60
2019-04-20T08:23:38.871Z,35.50
2019-04-20T08:25:47.533Z,34.17
2019-04-20T08:28:01.487Z,36.57
2019-04-20T08:30:46.750Z,34.43
2019-04-20T08:33:17.787Z,34.90
2019-04-20T08:35:52.573Z,36.47
2019-04-20T08:38:52.905Z,34.10
2019-04-20T08:40:43.486Z,36.73
2019-04-20T08:43:20.824Z,31.80
2019-04-20T08:45:41.973Z,31.93
2019-04-20T08:48:12.824Z,32.90
2019-04-20T08:50:36.389Z,35.20
2019-04-20T08:53:14.689Z,30.30
2019-04-20T08:55:33.394Z,29.77
2019-04-20T08:57:44.452Z,34.27
2019-04-20T09:00:11.251Z,31.13
2019-04-20T09:02:41.353Z,30.57
2019-04-20T09:05:18.632Z,37.67
2019-04-20T09:07:50.297Z,32.67
2019-04-20T09:10:32.428Z,31.83
2019-04-20T09:12:50.709Z,34.00
2019-04-20T09:15:05.987Z,32.00
2019-04-20T09:17:39.799Z,33.70
2019-04-20T09:20:12.647Z,30.07
2019-04-20T09:22:46.983Z,31.67
2019-04-20T09:25:42.790Z,33.80
2019-04-20T09:27:45.197Z,29.03
2019-04-20T09:30:18.810Z,36.20
2019-04-20T09:32:51.735Z,33.57
2019-04-20T09:35:26.704Z,31.70
2019-04-20T09:37:53.159Z,32.17
2019-04-20T09:40:27.721Z,31.83
2019-04-20T09:42:37.914Z,29.73
2019-04-20T09:45:07.558Z,34.37
2019-04-20T09:47:40.643Z,36.87
2019-04-20T09:50:22.530Z,35.03
2019-04-20T09:52:52.645Z,34.77
2019-04-20T09:55:14.325Z,37.60
2019-04-20T09:57:54.108Z,34.90
2019-04-20T10:00:19.377Z,35.10
2019-04-20T10:02:37.776Z,42.00
2019-04-20T10:05:05.235Z,33.37
2019-04-20T10:07:34.347Z,37.40
2019-04-20T10:10:00.009Z,36.73
2019-04-20T10:12:26.432Z,37.23
2019-04-20T10:14:53.237Z,33.80
2019-04-20T10:17:20.246Z,37.90
2019-04-20T10:19:48.336Z,36.30
2019-04-20T10:22:14.992Z,33.83
2019-04-20T10:24:42.354Z,40.50
2019-04-20T10:27:08.637Z,35.87
2019-04-20T10:29:35.544Z,37.40
2019-04-20T10:32:07.010Z,35.07
2019-04-20T10:34:30.572Z,38.33
2019-04-20T10:36:57.551Z,35.80
2019-04-20T10:39:26.658Z,35.73
2019-04-20T10:41:57.654Z,33.40
2019-04-20T10:44:21.055Z,33.27
2019-04-20T10:46:47.261Z,33.67
2019-04-20T10:49:13.468Z,39.77
2019-04-20T10:51:40.050Z,35.70
2019-04-20T10:54:06.684Z,36.13
2019-04-20T10:56:33.694Z,36.30
2019-04-20T10:59:01.310Z,34.00
2019-04-20T11:01:27.847Z,36.80
2019-04-20T11:03:54.487Z,37.27
2019-04-20T11:06:20.962Z,34.80
2019-04-20T11:08:48.492Z,36.57
2019-04-20T11:11:23.152Z,37.80
2019-04-20T11:13:43.503Z,35.10
2019-04-20T11:16:10.724Z,35.07
2019-04-20T11:18:37.766Z,39.50
2019-04-20T11:21:04.403Z,39.13
2019-04-20T11:23:32.015Z,37.80
2019-04-20T11:26:00.078Z,43.70
2019-04-20T11:28:26.584Z,36.87
2019-04-20T11:30:53.026Z,39.87
2019-04-20T11:33:20.628Z,42.03
2019-04-20T11:35:48.145Z,43.23
2019-04-20T11:38:17.107Z,42.87
2019-04-20T11:40:42.958Z,38.67
2019-04-20T11:43:09.197Z,41.13
2019-04-20T11:45:36.404Z,42.90
2019-04-20T11:48:03.292Z,43.83
2019-04-20T11:50:29.633Z,41.50
2019-04-20T11:52:57.189Z,39.93
2019-04-20T11:55:24.353Z,43.50
2019-04-20T11:57:51.334Z,39.43
2019-04-20T12:00:23.978Z,42.27
2019-04-20T12:02:54.271Z,40.27
2019-04-20T12:05:32.416Z,48.23
2019-04-20T12:07:53.278Z,42.70
2019-04-20T12:10:23.712Z,47.70
2019-04-20T12:12:51.018Z,48.17
2019-04-20T12:15:16.826Z,48.70
2019-04-20T12:17:43.954Z,47.13
2019-04-20T12:20:10.468Z,49.97
2019-04-20T12:22:36.992Z,44.90
2019-04-20T12:25:05.838Z,51.23
2019-04-20T12:27:32.654Z,50.53
2019-04-20T12:29:59.594Z,48.83
2019-04-20T12:32:28.215Z,46.20
2019-04-20T12:34:54.125Z,46.70
2019-04-20T12:37:20.870Z,47.93
2019-04-20T12:39:47.180Z,52.83
2019-04-20T12:42:14.722Z,50.80
2019-04-20T12:44:41.805Z,46.83
2019-04-20T12:47:08.080Z,46.50
2019-04-20T12:49:35.687Z,48.83
2019-04-20T12:52:05.130Z,48.77
2019-04-20T12:54:29.996Z,51.97
2019-04-20T12:56:56.382Z,49.20
2019-04-20T12:59:23.452Z,47.23
2019-04-20T13:01:51.275Z,46.40
2019-04-20T13:04:18.485Z,55.37
2019-04-20T13:06:44.870Z,53.57
2019-04-20T13:09:12.621Z,52.50
2019-04-20T13:11:49.454Z,51.10
2019-04-20T13:14:14.827Z,50.27
2019-04-20T13:16:41.139Z,53.13
2019-04-20T13:19:08.812Z,50.70
2019-04-20T13:21:36.545Z,49.47
2019-04-20T13:24:04.746Z,47.33
2019-04-20T13:26:31.428Z,48.83
2019-04-20T13:28:57.620Z,48.87
2019-04-20T13:31:24.071Z,48.37
2019-04-20T13:33:51.631Z,50.97
2019-04-20T13:36:18.145Z,48.13
2019-04-20T13:38:44.336Z,43.00
2019-04-20T13:41:11.679Z,48.30
2019-04-20T13:43:37.980Z,45.17
2019-04-20T13:46:04.939Z,46.63
2019-04-20T13:48:31.312Z,42.37
2019-04-20T13:50:58.288Z,38.60
2019-04-20T13:53:25.321Z,40.23
2019-04-20T13:55:51.909Z,42.00
2019-04-20T13:58:20.117Z,44.80
2019-04-20T14:00:50.318Z,38.00
2019-04-20T14:03:18.431Z,39.50
2019-04-20T14:05:45.028Z,42.37
2019-04-20T14:08:11.534Z,42.43
2019-04-20T14:10:37.980Z,37.60
2019-04-20T14:13:11.254Z,44.87
2019-04-20T14:15:33.238Z,45.30
2019-04-20T14:17:59.617Z,38.80
2019-04-20T14:20:27.071Z,44.83
2019-04-20T14:22:54.657Z,37.17
2019-04-20T14:25:22.845Z,35.53
2019-04-20T14:27:49.273Z,38.30
2019-04-20T14:30:15.478Z,36.43
2019-04-20T14:32:42.948Z,35.40
2019-04-20T14:35:09.318Z,40.73
2019-04-20T14:37:36.059Z,38.17
2019-04-20T14:40:06.163Z,38.63
2019-04-20T14:42:40.716Z,40.83
2019-04-20T14:45:01.891Z,38.27
2019-04-20T14:47:28.301Z,37.27
2019-04-20T14:49:55.140Z,38.63
2019-04-20T14:52:23.813Z,36.93
2019-04-20T14:54:50.239Z,36.70
2019-04-20T14:57:17.302Z,35.07
2019-04-20T14:59:45.538Z,31.60
2019-04-20T15:02:15.226Z,35.40
2019-04-20T15:04:43.118Z,38.87
2019-04-20T15:07:10.747Z,36.47
2019-04-20T15:09:38.861Z,35.30
2019-04-20T15:12:06.619Z,34.17
2019-04-20T15:14:34.500Z,27.20
2019-04-20T15:17:00.975Z,32.60
2019-04-20T15:19:29.482Z,31.30
2019-04-20T15:21:57.795Z,28.57
2019-04-20T15:24:24.033Z,27.30
2019-04-20T15:26:52.083Z,27.60
2019-04-20T15:29:18.403Z,29.27
2019-04-20T15:31:45.902Z,28.43
2019-04-20T15:34:12.933Z,30.50
2019-04-20T15:36:40.207Z,27.80
2019-04-20T15:39:07.333Z,30.43
2019-04-20T15:41:33.706Z,33.70
2019-04-20T15:43:59.899Z,26.77
2019-04-20T15:46:27.603Z,33.07
2019-04-20T15:48:53.912Z,29.03
2019-04-20T15:51:21.586Z,28.83
2019-04-20T15:53:49.410Z,28.17
2019-04-20T15:56:16.594Z,29.73
2019-04-20T15:58:44.147Z,29.53
2019-04-20T16:01:10.625Z,30.23
2019-04-20T16:03:39.254Z,28.53
2019-04-20T16:06:07.567Z,28.27
2019-04-20T16:08:36.656Z,28.57
2019-04-20T16:11:04.537Z,26.10
2019-04-20T16:13:37.623Z,25.53
2019-04-20T16:15:59.218Z,25.10
2019-04-20T16:18:25.420Z,24.07
2019-04-20T16:21:00.453Z,21.87
2019-04-20T16:23:20.769Z,23.20
2019-04-20T16:25:49.896Z,25.57
2019-04-20T16:28:17.388Z,23.70
2019-04-20T16:30:43.715Z,30.63
2019-04-20T16:33:10.465Z,27.87
2019-04-20T16:35:36.769Z,24.53
2019-04-20T16:38:02.966Z,26.93
2019-04-20T16:40:31.521Z,29.60
2019-04-20T16:42:58.486Z,26.67
2019-04-20T16:45:25.333Z,31.10
2019-04-20T16:47:52.448Z,27.60
2019-04-20T16:50:19.325Z,32.30
2019-04-20T16:52:46.560Z,36.90
2019-04-20T16:55:12.985Z,34.90
2019-04-20T16:57:39.719Z,34.43
2019-04-20T17:00:07.385Z,30.50
2019-04-20T17:02:34.041Z,35.03
2019-04-20T17:05:00.940Z,31.53
2019-04-20T17:07:29.325Z,34.10
2019-04-20T17:09:55.998Z,30.20
2019-04-20T17:12:23.749Z,33.67
2019-04-20T17:14:51.562Z,37.10
2019-04-20T17:17:17.965Z,33.90
2019-04-20T17:19:44.167Z,31.33
2019-04-20T17:22:11.577Z,28.43
2019-04-20T17:24:38.105Z,33.70
2019-04-20T17:27:06.519Z,33.37
2019-04-20T17:29:35.848Z,29.87
2019-04-20T17:32:05.516Z,26.83
2019-04-20T17:34:49.261Z,29.97
2019-04-20T17:37:00.523Z,29.17
2019-04-20T17:39:37.134Z,27.87
2019-04-20T17:42:12.848Z,29.67
2019-04-20T17:44:35.920Z,24.73
2019-04-20T17:47:00.619Z,27.60
2019-04-20T17:49:31.443Z,27.50
2019-04-20T17:52:12.766Z,29.83
2019-04-20T17:54:17.729Z,25.53
2019-04-20T17:56:44.502Z,29.10
2019-04-20T17:59:12.343Z,32.97
2019-04-20T18:01:53.972Z,26.57
2019-04-20T18:04:46.485Z,28.57
2019-04-20T18:06:50.467Z,27.10
2019-04-20T18:09:34.897Z,27.20
2019-04-20T18:11:42.576Z,32.83
2019-04-20T18:14:24.203Z,36.63
2019-04-20T18:16:51.967Z,30.73
2019-04-20T18:19:09.982Z,35.50
2019-04-20T18:21:32.990Z,29.83
2019-04-20T18:24:00.407Z,32.13
2019-04-20T18:26:48.126Z,36.10
2019-04-20T18:29:15.040Z,32.53
2019-04-20T18:31:25.842Z,40.27
2019-04-20T18:33:54.086Z,41.17
2019-04-20T18:36:27.281Z,39.73
2019-04-20T18:38:54.035Z,41.17
2019-04-20T18:41:31.814Z,35.20
2019-04-20T18:43:50.412Z,40.87
2019-04-20T18:46:29.304Z,41.47
2019-04-20T18:49:03.550Z,35.53
2019-04-20T18:51:09.883Z,41.27
2019-04-20T18:53:42.523Z,38.03
2019-04-20T18:56:04.726Z,39.80
2019-04-20T18:58:33.290Z,43.03
2019-04-20T19:01:00.830Z,40.63
2019-04-20T19:03:33.680Z,38.17
2019-04-20T19:05:55.827Z,46.13
2019-04-20T19:08:30.262Z,38.00
2019-04-20T19:11:01.725Z,40.53
2019-04-20T19:13:26.767Z,37.37
2019-04-20T19:16:04.353Z,44.00
2019-04-20T19:18:38.345Z,41.03
2019-04-20T19:20:50.841Z,38.00
2019-04-20T19:23:17.244Z,50.63
2019-04-20T19:25:44.207Z,40.03
2019-04-20T19:28:14.520Z,38.70
2019-04-20T19:30:47.014Z,46.13
2019-04-20T19:33:22.714Z,44.57
2019-04-20T19:35:46.590Z,40.20
2019-04-20T19:38:14.882Z,41.03
2019-04-20T19:40:45.623Z,44.87
2019-04-20T19:43:13.741Z,41.10
2019-04-20T19:45:46.603Z,45.00
2019-04-20T19:48:12.208Z,46.63
2019-04-20T19:50:49.738Z,42.30
2019-04-20T19:53:16.416Z,46.57
2019-04-20T19:55:40.076Z,43.03
2019-04-20T19:58:01.424Z,45.00
2019-04-20T20:00:20.783Z,43.60
2019-04-20T20:02:47.860Z,45.93
2019-04-20T20:05:16.235Z,41.77
2019-04-20T20:07:46.369Z,43.73
2019-04-20T20:10:10.981Z,46.03
2019-04-20T20:12:41.232Z,45.80
2019-04-20T20:15:13.781Z,40.13
2019-04-20T20:17:57.738Z,41.07
2019-04-20T20:20:28.932Z,39.90
2019-04-20T20:22:40.670Z,42.73
2019-04-20T20:25:01.086Z,37.50
2019-04-20T20:27:32.622Z,39.80
2019-04-20T20:30:08.231Z,39.17
2019-04-20T20:32:39.039Z,35.57
2019-04-20T20:35:01.247Z,31.33
2019-04-20T20:37:26.726Z,33.87
2019-04-20T20:39:59.321Z,31.80
2019-04-20T20:42:29.610Z,30.07
2019-04-20T20:44:52.336Z,32.93
2019-04-20T20:47:39.799Z,29.80
2019-04-20T20:50:04.044Z,28.37
2019-04-20T20:52:30.544Z,24.70
2019-04-20T20:54:49.489Z,25.00
2019-04-20T20:57:11.391Z,27.17
2019-04-20T20:59:42.972Z,26.33
2019-04-20T21:02:06.753Z,24.97
2019-04-20T21:04:29.897Z,25.57
2019-04-20T21:06:56.267Z,27.33
2019-04-20T21:09:25.146Z,30.80
2019-04-20T21:11:58.326Z,34.43
2019-04-20T21:14:21.967Z,34.10
2019-04-20T21:16:53.122Z,32.70
2019-04-20T21:19:28.565Z,37.80
2019-04-20T21:21:50.480Z,36.07
2019-04-20T21:24:16.503Z,41.97
2019-04-20T21:26:44.019Z,34.43
2019-04-20T21:29:10.027Z,40.47
2019-04-20T21:31:36.693Z,40.87
2019-04-20T21:34:10.046Z,34.63
2019-04-20T21:36:31.829Z,41.10
2019-04-20T21:38:59.359Z,37.53
2019-04-20T21:41:26.093Z,38.00
2019-04-20T21:43:54.018Z,43.07
2019-04-20T21:46:20.778Z,37.93
2019-04-20T21:48:59.764Z,40.37
2019-04-20T21:51:30.065Z,34.60
2019-04-20T21:53:44.294Z,29.13
2019-04-20T21:56:12.091Z,38.63
2019-04-20T21:58:44.782Z,36.50
2019-04-20T22:01:16.306Z,31.83
2019-04-20T22:03:36.328Z,34.40
2019-04-20T22:06:04.733Z,37.47
2019-04-20T22:08:32.562Z,28.97
2019-04-20T22:10:59.793Z,34.10
2019-04-20T22:13:32.402Z,27.77
2019-04-20T22:16:03.137Z,39.20
2019-04-20T22:18:27.030Z,31.23
2019-04-20T22:21:06.897Z,28.90
2019-04-20T22:23:43.385Z,29.97
2019-04-20T22:26:05.149Z,36.30
2019-04-20T22:28:20.442Z,35.37
2019-04-20T22:30:48.431Z,33.30
2019-04-20T22:33:23.601Z,25.97
2019-04-20T22:35:53.010Z,27.70
2019-04-20T22:38:22.589Z,29.30
2019-04-20T22:40:49.189Z,28.77
2019-04-20T22:43:17.993Z,31.80
2019-04-20T22:45:50.343Z,36.63
2019-04-20T22:48:15.706Z,32.07
2019-04-20T22:51:03.603Z,33.80
2019-04-20T22:53:26.096Z,30.33
2019-04-20T22:56:01.186Z,34.10
2019-04-20T22:58:23.628Z,36.30
2019-04-20T23:00:43.439Z,35.93
2019-04-20T23:03:02.980Z,37.23
2019-04-20T23:05:29.395Z,35.50
2019-04-20T23:07:56.976Z,38.00
2019-04-20T23:10:29.407Z,41.87
2019-04-20T23:12:55.919Z,40.17
2019-04-20T23:15:20.532Z,36.50
2019-04-20T23:17:50.070Z,38.67
2019-04-20T23:20:22.070Z,33.07
2019-04-20T23:22:46.188Z,31.60
2019-04-20T23:25:13.216Z,33.80
2019-04-20T23:27:41.682Z,29.53
2019-04-20T23:30:12.580Z,28.97
2019-04-20T23:32:36.307Z,30.97
2019-04-20T23:35:09.736Z,34.40
2019-04-20T23:37:36.498Z,29.07
2019-04-20T23:40:02.699Z,26.43
2019-04-20T23:42:33.649Z,28.37
2019-04-20T23:45:02.181Z,34.13
2019-04-20T23:47:32.033Z,33.73
2019-04-20T23:50:16.299Z,27.53
2019-04-20T23:52:49.709Z,31.30
2019-04-20T23:55:03.904Z,27.37
2019-04-20T23:57:25.942Z,31.23
2019-04-20T23:59:53.779Z,29.57
